For water level readings from Victoria harbour, visit our Tides page.

DISCLAIMER: Although GVHA takes care to produce accurate readings from Ogden Point, the weather information on this site is raw data fed directly from sensors. It does not go through the same quality control processes used by professional weather services, and should not be relied on as a sole source of weather information for Victoria harbour.

In-depth weather values from Victoria Harbour can be found on the Environment Canada website.

Location: Ogden Point Breakwater

Current time: Sep 24, 2020 12:26 PM GMT | Sep 24, 2020 5:26 AM

Last Hour Last 3 Hours Last 6 Hours Last 12 Hours
Time Peak Wind Speed Avg Speed Avg Direction Avg Air Temp Avg Dew Point Avg Humidity
Sep 24, 2020 05:20 AM 11.7 knots 5 knots 260° True 11.8° C / 53.6° F 10.7° C / 51.4° F 93.3%
Sep 24, 2020 05:10 AM 12.7 knots 5 knots 247° True 11.4° C / 52.8° F 10.4° C / 50.8° F 93.4%
Sep 24, 2020 05:00 AM 8.4 knots 6 knots 103° True 11.6° C / 53.2° F 10.5° C / 51° F 92.6%
Sep 24, 2020 04:50 AM 12.4 knots 5.2 knots 130° True 11.8° C / 53.6° F 10.6° C / 51.2° F 92.1%
Sep 24, 2020 04:40 AM 12.3 knots 7.3 knots 119° True 12.2° C / 54.4° F 10.7° C / 51.4° F 91%
Sep 24, 2020 04:30 AM 13.2 knots 10.7 knots 108° True 12° C / 54° F 10.7° C / 51.4° F 92%
Sep 24, 2020 04:20 AM 11.4 knots 7.7 knots 103° True 11.1° C / 52.2° F 10.4° C / 50.8° F 95.2%
Sep 24, 2020 04:10 AM 9.9 knots 7.5 knots 100° True 10.9° C / 51.8° F 10.3° C / 50.6° F 96.1%
Sep 24, 2020 04:00 AM 13.6 knots 9.7 knots 113° True 11° C / 52° F 10.5° C / 51° F 96.4%
Sep 24, 2020 03:50 AM 14.7 knots 12.7 knots 112° True 11.1° C / 52.2° F 10.5° C / 51° F 96.5%
Sep 24, 2020 03:40 AM 13.9 knots 11.3 knots 109° True 11.3° C / 52.6° F 10.4° C / 50.8° F 94.5%
Sep 24, 2020 03:30 AM 11.1 knots 8.8 knots 113° True 12.1° C / 54.2° F 10.5° C / 51° F 90.2%
Sep 24, 2020 03:20 AM 12.6 knots 10.4 knots 131° True 12.6° C / 55.2° F 10.6° C / 51.2° F 88.1%
Sep 24, 2020 03:10 AM 12.7 knots 10.9 knots 125° True 12.5° C / 55° F 10.8° C / 51.6° F 89.4%
Sep 24, 2020 03:00 AM 11.5 knots 10 knots 127° True 11.9° C / 53.8° F 10.9° C / 51.8° F 93.4%
Sep 24, 2020 02:50 AM 12.3 knots 11 knots 122° True 11.4° C / 52.8° F 10.9° C / 51.8° F 96.3%
Sep 24, 2020 02:40 AM 13.1 knots 11.5 knots 122° True 11.5° C / 53° F 10.9° C / 51.8° F 96.3%
Sep 24, 2020 02:30 AM 12.5 knots 10.9 knots 125° True 11.7° C / 53.4° F 11.2° C / 52.4° F 96.4%
Sep 24, 2020 02:20 AM 12.7 knots 11.1 knots 123° True 11.6° C / 53.2° F 11.1° C / 52.2° F 97%
Sep 24, 2020 02:10 AM 10.4 knots 9.7 knots 115° True 11.9° C / 53.8° F 11.4° C / 52.8° F 96.4%
Sep 24, 2020 02:00 AM 9 knots 6.2 knots 134° True 12.2° C / 54.4° F 11.5° C / 53° F 95.2%
Sep 24, 2020 01:50 AM 8.4 knots 5.3 knots 121° True 12.3° C / 54.6° F 11.6° C / 53.2° F 95.5%
Sep 24, 2020 01:40 AM 6.8 knots 4.4 knots 108° True 12.4° C / 54.8° F 11.6° C / 53.2° F 94.9%
Sep 24, 2020 01:30 AM 9.3 knots 7.5 knots 101° True 12.9° C / 55.8° F 11.9° C / 53.8° F 93.7%
Sep 24, 2020 01:20 AM 10 knots 6.8 knots 86° True 12.9° C / 55.8° F 11.9° C / 53.8° F 93.5%
Sep 24, 2020 01:10 AM 9.1 knots 6.4 knots 72° True 12.9° C / 55.8° F 11.9° C / 53.8° F 93.5%
Sep 24, 2020 01:00 AM 8.1 knots 5.1 knots 76° True 12.6° C / 55.2° F 11.6° C / 53.2° F 93.6%
Sep 24, 2020 12:50 AM 9.9 knots 7.5 knots 108° True 12.7° C / 55.4° F 11.6° C / 53.2° F 92.7%
Sep 24, 2020 12:40 AM 11.7 knots 9.1 knots 117° True 12.9° C / 55.8° F 11.5° C / 53° F 91.4%
Sep 24, 2020 12:30 AM 10.9 knots 6.7 knots 116° True 12.3° C / 54.6° F 11.3° C / 52.6° F 93.6%
Sep 24, 2020 12:20 AM 9.6 knots 6.5 knots 120° True 12.2° C / 54.4° F 11.3° C / 52.6° F 94.5%
Sep 24, 2020 12:10 AM 9.7 knots 6.9 knots 127° True 12.1° C / 54.2° F 11.3° C / 52.6° F 94.6%
Sep 24, 2020 12:00 AM 9.9 knots 6.4 knots 121° True 12.3° C / 54.6° F 11.5° C / 53° F 94.7%
Sep 23, 2020 11:50 PM 9.7 knots 8.6 knots 101° True 12.3° C / 54.6° F 11.5° C / 53° F 94.5%
Sep 23, 2020 11:40 PM 9.9 knots 7.5 knots 100° True 12.2° C / 54.4° F 11.3° C / 52.6° F 93.9%
Sep 23, 2020 11:30 PM 9.1 knots 6.7 knots 92° True 12.4° C / 54.8° F 11.2° C / 52.4° F 92.7%
Sep 23, 2020 11:20 PM 8.3 knots 4.7 knots 89° True 12.3° C / 54.6° F 10.9° C / 51.8° F 91.6%
Sep 23, 2020 11:10 PM 11.5 knots 7.8 knots 92° True 12.3° C / 54.6° F 10.7° C / 51.4° F 90.4%
Sep 23, 2020 11:00 PM 13.2 knots 9.6 knots 105° True 13° C / 56° F 10.2° C / 50.4° F 83.2%
Sep 23, 2020 10:50 PM 12.2 knots 8.1 knots 150° True 13.7° C / 57.4° F 9.8° C / 49.6° F 77.3%
Sep 23, 2020 10:40 PM 13.7 knots 9.2 knots 132° True 13.4° C / 56.8° F 10.1° C / 50.2° F 80.5%
Sep 23, 2020 10:30 PM 8.3 knots 6.9 knots 210° True 14.3° C / 58.6° F 10.3° C / 50.6° F 77%
Sep 23, 2020 10:20 PM 7.8 knots 5.7 knots 217° True 13.6° C / 57.2° F 10.2° C / 50.4° F 79.7%
Sep 23, 2020 10:10 PM 7.7 knots 5.6 knots 215° True 13.6° C / 57.2° F 10.1° C / 50.2° F 79.6%
Sep 23, 2020 10:00 PM 13.3 knots 8.6 knots 209° True 13.7° C / 57.4° F 10.1° C / 50.2° F 78.8%
Sep 23, 2020 09:50 PM 18.3 knots 13 knots 214° True 14.3° C / 58.6° F 9.8° C / 49.6° F 74.6%
Sep 23, 2020 09:40 PM 20.1 knots 17.5 knots 217° True 14.5° C / 59° F 9.6° C / 49.2° F 72.5%
Sep 23, 2020 09:30 PM 21.6 knots 18.2 knots 217° True 14.4° C / 58.8° F 9.8° C / 49.6° F 73.9%
Sep 23, 2020 09:20 PM 22.4 knots 18.8 knots 216° True 14.4° C / 58.8° F 9.9° C / 49.8° F 74.6%
Sep 23, 2020 09:10 PM 22.7 knots 17.2 knots 207° True 14.3° C / 58.6° F 10.2° C / 50.4° F 76.2%
Sep 23, 2020 09:00 PM 21.1 knots 17.4 knots 209° True 14.3° C / 58.6° F 10.2° C / 50.4° F 76.6%
Sep 23, 2020 08:50 PM 20.9 knots 17.6 knots 216° True 14.1° C / 58.2° F 10.3° C / 50.6° F 77.9%
Sep 23, 2020 08:40 PM 21.2 knots 17.2 knots 224° True 14° C / 58° F 10.4° C / 50.8° F 79.1%
Sep 23, 2020 08:30 PM 22.2 knots 14.6 knots 230° True 14° C / 58° F 10.3° C / 50.6° F 78.4%
Sep 23, 2020 08:20 PM 14.4 knots 11.4 knots 214° True 13.9° C / 57.8° F 10.6° C / 51.2° F 80.3%
Sep 23, 2020 08:10 PM 18.7 knots 14.7 knots 211° True 14° C / 58° F 10.8° C / 51.6° F 81.4%
Sep 23, 2020 08:00 PM 19.6 knots 14.6 knots 215° True 14.1° C / 58.2° F 11.2° C / 52.4° F 83.1%
Sep 23, 2020 07:50 PM 17.4 knots 14.7 knots 215° True 14.2° C / 58.4° F 11.4° C / 52.8° F 83.3%
Sep 23, 2020 07:40 PM 17.9 knots 13.9 knots 223° True 14.1° C / 58.2° F 11.6° C / 53.2° F 84.7%
Sep 23, 2020 07:30 PM 18 knots 13.4 knots 225° True 14° C / 58° F 11.6° C / 53.2° F 85.4%
Sep 23, 2020 07:20 PM 14.5 knots 9.7 knots 228° True 13.3° C / 56.6° F 11.9° C / 53.8° F 91.3%
Sep 23, 2020 07:10 PM 12.4 knots 10.3 knots 213° True 13.4° C / 56.8° F 12.2° C / 54.4° F 92.3%
Sep 23, 2020 07:00 PM 16.9 knots 14 knots 223° True 13.9° C / 57.8° F 12.4° C / 54.8° F 90.9%
Sep 23, 2020 06:50 PM 20.5 knots 14.9 knots 235° True 13.1° C / 56.2° F 12.6° C / 55.2° F 96.7%
Sep 23, 2020 06:40 PM 16.1 knots 11.5 knots 253° True 12.2° C / 54.4° F 11.9° C / 53.8° F 97.9%
Sep 23, 2020 06:30 PM 5.4 knots 4.1 knots 244° True 12.4° C / 54.8° F 12° C / 54° F 97.8%
Sep 23, 2020 06:20 PM 3 knots 2.2 knots 269° True 12.2° C / 54.4° F 11.9° C / 53.8° F 97.7%
Sep 23, 2020 06:10 PM 4.7 knots 3.4 knots 294° True 11.5° C / 53° F 11.1° C / 52.2° F 97.5%
Sep 23, 2020 06:00 PM 4.2 knots 2.4 knots 274° True 10.9° C / 51.8° F 10.5° C / 51° F 97.1%
Sep 23, 2020 05:50 PM 3.3 knots 2.7 knots 171° True 11° C / 52° F 10.5° C / 51° F 96.9%
Sep 23, 2020 05:40 PM 4.1 knots 3.2 knots 148° True 11.1° C / 52.2° F 10.6° C / 51.2° F 96.8%
Sep 23, 2020 05:30 PM 3.8 knots 3.2 knots 134° True 11.2° C / 52.4° F 10.8° C / 51.6° F 97%